createdAt,value
2016-03-11T00:00:57.271Z,995.7
2016-03-11T00:01:57.273Z,995.74
2016-03-11T00:02:57.261Z,995.72
2016-03-11T00:03:57.264Z,995.71
2016-03-11T00:04:57.250Z,995.7
2016-03-11T00:05:57.254Z,995.72
2016-03-11T00:06:57.240Z,995.73
2016-03-11T00:07:57.242Z,995.74
2016-03-11T00:08:57.230Z,995.74
2016-03-11T00:09:57.233Z,995.76
2016-03-11T00:10:57.236Z,995.76
2016-03-11T00:11:57.223Z,995.76
2016-03-11T00:12:57.226Z,995.76
2016-03-11T00:13:57.213Z,995.78
2016-03-11T00:14:57.216Z,995.75
2016-03-11T00:15:57.203Z,995.76
2016-03-11T00:16:57.205Z,995.77
2016-03-11T00:17:57.192Z,995.77
2016-03-11T00:18:57.194Z,995.75
2016-03-11T00:19:57.182Z,995.73
2016-03-11T00:20:57.185Z,995.77
2016-03-11T00:21:57.172Z,995.79
2016-03-11T00:22:57.174Z,995.75
2016-03-11T00:23:57.161Z,995.77
2016-03-11T00:24:57.164Z,995.77
2016-03-11T00:25:57.151Z,995.81
2016-03-11T00:26:57.154Z,995.84
2016-03-11T00:27:57.157Z,995.88
2016-03-11T00:28:57.143Z,995.87
2016-03-11T00:29:57.146Z,995.86
2016-03-11T00:30:57.134Z,995.86
2016-03-11T00:31:57.120Z,995.91
2016-03-11T00:32:57.123Z,995.88
2016-03-11T00:33:57.126Z,995.9
2016-03-11T00:34:57.112Z,995.86
2016-03-11T00:35:57.116Z,995.88
2016-03-11T00:36:57.104Z,995.94
2016-03-11T00:37:57.106Z,995.93
2016-03-11T00:38:57.093Z,995.93
2016-03-11T00:39:57.079Z,995.92
2016-03-11T00:40:57.082Z,995.93
2016-03-11T00:41:57.085Z,995.95
2016-03-11T00:42:57.072Z,995.88
2016-03-11T00:43:57.075Z,995.9
2016-03-11T00:44:57.078Z,995.97
2016-03-11T00:45:57.049Z,995.94
2016-03-11T00:46:57.052Z,995.96
2016-03-11T00:47:57.055Z,995.92
2016-03-11T00:48:57.041Z,995.95
2016-03-11T00:49:57.028Z,995.93
2016-03-11T00:50:57.031Z,995.94
2016-03-11T00:51:57.019Z,995.95
2016-03-11T00:52:57.037Z,995.89
2016-03-11T00:53:57.025Z,995.92
2016-03-11T00:54:57.011Z,995.92
2016-03-11T00:55:57.014Z,995.94
2016-03-11T00:56:57.001Z,995.94
2016-03-11T00:57:56.988Z,995.98
2016-03-11T00:58:56.991Z,995.92
2016-03-11T00:59:56.994Z,995.94
2016-03-11T01:00:56.980Z,995.98
2016-03-11T01:01:56.968Z,995.97
2016-03-11T01:02:56.971Z,996.01
2016-03-11T01:03:56.974Z,995.96
2016-03-11T01:04:56.960Z,995.98
2016-03-11T01:05:56.963Z,995.95
2016-03-11T01:06:56.949Z,995.97
2016-03-11T01:07:56.937Z,995.96
2016-03-11T01:08:56.940Z,995.94
2016-03-11T01:09:56.926Z,995.98
2016-03-11T01:10:56.929Z,995.99
2016-03-11T01:11:56.916Z,995.98
2016-03-11T01:12:56.918Z,995.94
2016-03-11T01:13:56.906Z,995.97
2016-03-11T01:14:56.909Z,996.02
2016-03-11T01:15:56.896Z,996.05
2016-03-11T01:16:56.914Z,996.04
2016-03-11T01:17:56.886Z,996.03
2016-03-11T01:18:56.889Z,996
2016-03-11T01:19:56.876Z,996.03
2016-03-11T01:20:56.879Z,996.03
2016-03-11T01:21:56.865Z,996.01
2016-03-11T01:22:56.867Z,995.99
2016-03-11T01:23:56.855Z,996
2016-03-11T01:24:56.858Z,995.97
2016-03-11T01:25:56.861Z,996
2016-03-11T01:26:56.848Z,996
2016-03-11T01:27:56.851Z,995.99
2016-03-11T01:28:56.837Z,995.99
2016-03-11T01:29:56.825Z,995.98
2016-03-11T01:30:56.828Z,995.95
2016-03-11T01:31:56.845Z,995.99
2016-03-11T01:32:56.817Z,995.97
2016-03-11T01:33:56.805Z,995.96
2016-03-11T01:34:56.807Z,996
2016-03-11T01:35:56.794Z,996.01
2016-03-11T01:36:56.797Z,996
2016-03-11T01:37:56.783Z,996
2016-03-11T01:38:56.787Z,995.97
2016-03-11T01:39:56.774Z,996
2016-03-11T01:40:56.776Z,996
2016-03-11T01:41:56.763Z,995.99
2016-03-11T01:42:56.765Z,996.02
2016-03-11T01:43:56.753Z,996.04
2016-03-11T01:44:56.772Z,996.04
2016-03-11T01:45:56.758Z,996.02
2016-03-11T01:46:56.761Z,996
2016-03-11T01:47:56.732Z,996.01
2016-03-11T01:48:56.735Z,996.01
2016-03-11T01:49:56.722Z,995.99
2016-03-11T01:50:56.741Z,995.96
2016-03-11T01:51:56.712Z,995.98
2016-03-11T01:52:56.715Z,995.96
2016-03-11T01:53:56.701Z,996
2016-03-11T01:54:56.704Z,995.97
2016-03-11T01:55:56.691Z,996.02
2016-03-11T01:56:56.695Z,995.99
2016-03-11T01:57:56.681Z,996
2016-03-11T01:58:56.680Z,996.04
2016-03-11T01:59:56.656Z,996.05
2016-03-11T02:00:56.647Z,996.01
2016-03-11T02:01:56.640Z,996.01
2016-03-11T02:02:56.601Z,995.98
2016-03-11T02:03:56.611Z,996
2016-03-11T02:04:56.594Z,996
2016-03-11T02:05:56.578Z,996.02
2016-03-11T02:06:56.561Z,996.01
2016-03-11T02:07:56.560Z,996.03
2016-03-11T02:08:56.543Z,996.04
2016-03-11T02:09:56.544Z,996.07
2016-03-11T02:10:56.531Z,996.06
2016-03-11T02:11:56.516Z,996.07
2016-03-11T02:12:56.517Z,996.08
2016-03-11T02:13:56.518Z,996.1
2016-03-11T02:14:56.505Z,996.1
2016-03-11T02:15:56.507Z,996.15
2016-03-11T02:16:56.495Z,996.14
2016-03-11T02:17:56.480Z,996.13
2016-03-11T02:18:56.483Z,996.18
2016-03-11T02:19:56.471Z,996.14
2016-03-11T02:20:56.458Z,996.1
2016-03-11T02:21:56.460Z,996.13
2016-03-11T02:22:56.447Z,996.16
2016-03-11T02:23:56.450Z,996.16
2016-03-11T02:24:56.453Z,996.15
2016-03-11T02:25:56.440Z,996.13
2016-03-11T02:26:56.443Z,996.14
2016-03-11T02:27:56.429Z,996.12
2016-03-11T02:28:56.416Z,996.11
2016-03-11T02:29:56.419Z,996.15
2016-03-11T02:30:56.406Z,996.15
2016-03-11T02:31:56.409Z,996.14
2016-03-11T02:32:56.396Z,996.13
2016-03-11T02:33:56.384Z,996.09
2016-03-11T02:34:56.386Z,996.12
2016-03-11T02:35:56.373Z,996.12
2016-03-11T02:36:56.375Z,996.08
2016-03-11T02:37:56.363Z,996.05
2016-03-11T02:38:56.365Z,996.03
2016-03-11T02:39:56.353Z,996.02
2016-03-11T02:40:56.356Z,996
2016-03-11T02:41:56.342Z,996
2016-03-11T02:42:56.345Z,996
2016-03-11T02:43:56.332Z,996.01
2016-03-11T02:44:56.320Z,996.06
2016-03-11T02:45:56.322Z,996.01
2016-03-11T02:46:56.309Z,996.01
2016-03-11T02:47:56.311Z,996.01
2016-03-11T02:48:56.299Z,996.06
2016-03-11T02:49:56.286Z,996.03
2016-03-11T02:50:56.288Z,996.07
2016-03-11T02:51:56.275Z,996.07
2016-03-11T02:52:56.277Z,996.05
2016-03-11T02:53:56.280Z,996.1
2016-03-11T02:54:56.268Z,996.08
2016-03-11T02:55:56.255Z,996.04
2016-03-11T02:56:56.257Z,996.08
2016-03-11T02:57:56.244Z,996.1
2016-03-11T02:58:56.232Z,996.06
2016-03-11T02:59:56.234Z,996.09
2016-03-11T03:00:56.238Z,996.03
2016-03-11T03:01:56.224Z,996.03
2016-03-11T03:02:56.227Z,996.08
2016-03-11T03:03:56.214Z,996.07
2016-03-11T03:04:56.200Z,996.09
2016-03-11T03:05:56.203Z,996.11
2016-03-11T03:06:56.190Z,996.14
2016-03-11T03:07:56.193Z,996.1
2016-03-11T03:08:56.181Z,996.12
2016-03-11T03:09:56.167Z,996.13
2016-03-11T03:10:56.170Z,996.16
2016-03-11T03:11:56.157Z,996.13
2016-03-11T03:12:56.159Z,996.13
2016-03-11T03:13:56.147Z,996.11
2016-03-11T03:14:56.150Z,996.16
2016-03-11T03:15:56.152Z,996.15
2016-03-11T03:16:56.124Z,996.16
2016-03-11T03:17:56.126Z,996.16
2016-03-11T03:18:56.114Z,996.17
2016-03-11T03:19:56.117Z,996.2
2016-03-11T03:20:56.103Z,996.22
2016-03-11T03:21:56.091Z,996.24
2016-03-11T03:22:56.093Z,996.24
2016-03-11T03:23:56.096Z,996.28
2016-03-11T03:24:56.083Z,996.3
2016-03-11T03:25:56.086Z,996.28
2016-03-11T03:26:56.072Z,996.3
2016-03-11T03:27:56.060Z,996.3
2016-03-11T03:28:56.063Z,996.34
2016-03-11T03:29:56.049Z,996.31
2016-03-11T03:30:56.036Z,996.35
2016-03-11T03:31:56.040Z,996.34
2016-03-11T03:32:56.026Z,996.34
2016-03-11T03:33:56.029Z,996.34
2016-03-11T03:34:56.031Z,996.36
2016-03-11T03:35:56.019Z,996.36
2016-03-11T03:36:56.006Z,996.39
2016-03-11T03:37:55.993Z,996.41
2016-03-11T03:38:55.996Z,996.4
2016-03-11T03:39:55.982Z,996.39
2016-03-11T03:40:55.970Z,996.4
2016-03-11T03:41:55.988Z,996.41
2016-03-11T03:42:55.959Z,996.34
2016-03-11T03:43:55.962Z,996.36
2016-03-11T03:44:55.950Z,996.35
2016-03-11T03:45:55.952Z,996.36
2016-03-11T03:46:55.939Z,996.39
2016-03-11T03:47:55.925Z,996.34
2016-03-11T03:48:55.928Z,996.35
2016-03-11T03:49:55.916Z,996.38
2016-03-11T03:50:55.919Z,996.36
2016-03-11T03:51:55.905Z,996.37
2016-03-11T03:52:55.908Z,996.37
2016-03-11T03:53:55.894Z,996.38
2016-03-11T03:54:55.882Z,996.38
2016-03-11T03:55:55.885Z,996.4
2016-03-11T03:56:55.872Z,996.4
2016-03-11T03:57:55.874Z,996.39
2016-03-11T03:58:55.862Z,996.39
2016-03-11T03:59:55.849Z,996.38
2016-03-11T04:00:55.852Z,996.39
2016-03-11T04:01:55.839Z,996.39
2016-03-11T04:02:55.841Z,996.41
2016-03-11T04:03:55.828Z,996.43
2016-03-11T04:04:55.832Z,996.44
2016-03-11T04:05:55.818Z,996.46
2016-03-11T04:06:55.805Z,996.44
2016-03-11T04:07:55.807Z,996.49
2016-03-11T04:08:55.795Z,996.47
2016-03-11T04:09:55.798Z,996.45
2016-03-11T04:10:55.784Z,996.42
2016-03-11T04:11:55.772Z,996.45
2016-03-11T04:12:55.775Z,996.45
2016-03-11T04:13:55.761Z,996.44
2016-03-11T04:14:55.795Z,996.47
2016-03-11T04:15:55.751Z,996.42
2016-03-11T04:16:55.753Z,996.41
2016-03-11T04:17:55.742Z,996.44
2016-03-11T04:18:55.728Z,996.43
2016-03-11T04:19:55.731Z,996.44
2016-03-11T04:20:55.717Z,996.43
2016-03-11T04:21:55.720Z,996.48
2016-03-11T04:22:55.708Z,996.48
2016-03-11T04:23:55.695Z,996.49
2016-03-11T04:24:55.697Z,996.51
2016-03-11T04:25:55.685Z,996.52
2016-03-11T04:26:55.671Z,996.56
2016-03-11T04:27:55.674Z,996.56
2016-03-11T04:28:55.661Z,996.53
2016-03-11T04:29:55.664Z,996.56
2016-03-11T04:30:55.651Z,996.56
2016-03-11T04:31:55.654Z,996.55
2016-03-11T04:32:55.641Z,996.57
2016-03-11T04:33:55.628Z,996.56
2016-03-11T04:34:55.630Z,996.61
2016-03-11T04:35:55.618Z,996.57
2016-03-11T04:36:55.620Z,996.57
2016-03-11T04:37:55.607Z,996.61
2016-03-11T04:38:55.610Z,996.6
2016-03-11T04:39:55.597Z,996.6
2016-03-11T04:40:55.584Z,996.64
2016-03-11T04:41:55.570Z,996.62
2016-03-11T04:42:55.573Z,996.62
2016-03-11T04:43:55.561Z,996.62
2016-03-11T04:44:55.564Z,996.61
2016-03-11T04:45:55.551Z,996.62
2016-03-11T04:46:55.538Z,996.66
2016-03-11T04:47:55.540Z,996.66
2016-03-11T04:48:55.542Z,996.61
2016-03-11T04:49:55.531Z,996.62
2016-03-11T04:50:55.517Z,996.6
2016-03-11T04:51:55.504Z,996.6
2016-03-11T04:52:55.508Z,996.63
2016-03-11T04:53:55.494Z,996.62
2016-03-11T04:54:55.497Z,996.62
2016-03-11T04:55:55.484Z,996.6
2016-03-11T04:56:55.486Z,996.59
2016-03-11T04:57:55.474Z,996.56
2016-03-11T04:58:55.477Z,996.6
2016-03-11T04:59:55.463Z,996.59
2016-03-11T05:00:55.449Z,996.61
2016-03-11T05:01:55.438Z,996.6
2016-03-11T05:02:55.440Z,996.59
2016-03-11T05:03:55.427Z,996.6
2016-03-11T05:04:55.429Z,996.6
2016-03-11T05:05:55.418Z,996.58
2016-03-11T05:06:55.410Z,996.63
2016-03-11T05:07:55.428Z,996.65
2016-03-11T05:08:55.400Z,996.64
2016-03-11T05:09:55.387Z,996.72
2016-03-11T05:10:55.374Z,996.76
2016-03-11T05:11:55.376Z,996.76
2016-03-11T05:12:55.363Z,996.78
2016-03-11T05:13:55.365Z,996.75
2016-03-11T05:14:55.354Z,996.74
2016-03-11T05:15:55.356Z,996.76
2016-03-11T05:16:55.343Z,996.77
2016-03-11T05:17:55.330Z,996.78
2016-03-11T05:18:55.332Z,996.82
2016-03-11T05:19:55.320Z,996.78
2016-03-11T05:20:55.306Z,996.79
2016-03-11T05:21:55.309Z,996.79
2016-03-11T05:22:55.297Z,996.79
2016-03-11T05:23:55.284Z,996.76
2016-03-11T05:24:55.286Z,996.82
2016-03-11T05:25:55.273Z,996.78
2016-03-11T05:26:55.276Z,996.8
2016-03-11T05:27:55.264Z,996.84
2016-03-11T05:28:55.266Z,996.85
2016-03-11T05:29:55.253Z,996.83
2016-03-11T05:30:55.239Z,996.86
2016-03-11T05:31:55.243Z,996.9
2016-03-11T05:32:55.230Z,996.91
2016-03-11T05:33:55.217Z,996.93
2016-03-11T05:34:55.219Z,996.95
2016-03-11T05:35:55.207Z,996.98
2016-03-11T05:36:55.225Z,996.99
2016-03-11T05:37:55.196Z,996.98
2016-03-11T05:38:55.183Z,997.01
2016-03-11T05:39:55.185Z,997.08
2016-03-11T05:40:55.174Z,997.08
2016-03-11T05:41:55.176Z,997.02
2016-03-11T05:42:55.163Z,997.04
2016-03-11T05:43:55.166Z,997.05
2016-03-11T05:44:55.152Z,997.05
2016-03-11T05:45:55.155Z,997.06
2016-03-11T05:46:55.126Z,997.07
2016-03-11T05:47:55.130Z,997.07
2016-03-11T05:48:55.117Z,997.12
2016-03-11T05:49:55.104Z,997.09
2016-03-11T05:50:55.106Z,997.11
2016-03-11T05:51:55.093Z,997.09
2016-03-11T05:52:55.096Z,997.13
2016-03-11T05:53:55.083Z,997.13
2016-03-11T05:54:55.086Z,997.16
2016-03-11T05:55:55.072Z,997.14
2016-03-11T05:56:55.060Z,997.16
2016-03-11T05:57:55.062Z,997.15
2016-03-11T05:58:55.050Z,997.13
2016-03-11T05:59:55.052Z,997.09
2016-03-11T06:00:55.039Z,997.11
2016-03-11T06:01:55.042Z,997.16
2016-03-11T06:02:55.030Z,997.15
2016-03-11T06:03:55.016Z,997.13
2016-03-11T06:04:55.003Z,997.15
2016-03-11T06:05:55.006Z,997.15
2016-03-11T06:06:54.994Z,997.15
2016-03-11T06:07:54.996Z,997.17
2016-03-11T06:08:54.999Z,997.16
2016-03-11T06:09:54.969Z,997.18
2016-03-11T06:10:54.957Z,997.19
2016-03-11T06:11:54.960Z,997.19
2016-03-11T06:12:54.962Z,997.21
2016-03-11T06:13:54.950Z,997.21
2016-03-11T06:14:54.937Z,997.22
2016-03-11T06:15:54.940Z,997.24
2016-03-11T06:16:54.926Z,997.24
2016-03-11T06:17:54.929Z,997.22
2016-03-11T06:18:54.915Z,997.24
2016-03-11T06:19:54.903Z,997.27
2016-03-11T06:20:54.890Z,997.26
2016-03-11T06:21:54.893Z,997.29
2016-03-11T06:22:54.896Z,997.29
2016-03-11T06:23:54.882Z,997.33
2016-03-11T06:24:54.870Z,997.31
2016-03-11T06:25:54.856Z,997.34
2016-03-11T06:26:54.859Z,997.3
2016-03-11T06:27:54.847Z,997.34
2016-03-11T06:28:54.849Z,997.38
2016-03-11T06:29:54.836Z,997.36
2016-03-11T06:30:54.839Z,997.35
2016-03-11T06:31:54.826Z,997.42
2016-03-11T06:32:54.828Z,997.4
2016-03-11T06:33:54.816Z,997.38
2016-03-11T06:34:54.802Z,997.39
2016-03-11T06:35:54.789Z,997.43
2016-03-11T06:36:54.792Z,997.42
2016-03-11T06:37:54.780Z,997.47
2016-03-11T06:38:54.782Z,997.43
2016-03-11T06:39:54.769Z,997.4
2016-03-11T06:40:54.772Z,997.48
2016-03-11T06:41:54.759Z,997.46
2016-03-11T06:42:54.762Z,997.52
2016-03-11T06:43:54.748Z,997.55
2016-03-11T06:44:54.735Z,997.53
2016-03-11T06:45:54.738Z,997.55
2016-03-11T06:46:54.726Z,997.6
2016-03-11T06:47:54.728Z,997.61
2016-03-11T06:48:54.715Z,997.61
2016-03-11T06:49:54.717Z,997.64
2016-03-11T06:50:54.704Z,997.64
2016-03-11T06:51:54.707Z,997.63
2016-03-11T06:52:54.695Z,997.66
2016-03-11T06:53:54.682Z,997.6
2016-03-11T06:54:54.670Z,997.6
2016-03-11T06:55:54.687Z,997.66
2016-03-11T06:56:54.675Z,997.67
2016-03-11T06:57:54.662Z,997.69
2016-03-11T06:58:54.649Z,997.71
2016-03-11T06:59:54.651Z,997.73
2016-03-11T07:00:54.654Z,997.75
2016-03-11T07:01:54.625Z,997.79
2016-03-11T07:02:54.628Z,997.77
2016-03-11T07:03:54.614Z,997.78
2016-03-11T07:04:54.617Z,997.83
2016-03-11T07:05:54.605Z,997.84
2016-03-11T07:06:54.608Z,997.85
2016-03-11T07:07:54.594Z,997.87
2016-03-11T07:08:54.597Z,997.86
2016-03-11T07:09:54.585Z,997.89
2016-03-11T07:10:54.571Z,997.91
2016-03-11T07:11:54.574Z,997.91
2016-03-11T07:12:54.561Z,997.96
2016-03-11T07:13:54.549Z,997.98
2016-03-11T07:14:54.551Z,997.99
2016-03-11T07:15:54.554Z,997.95
2016-03-11T07:16:54.540Z,997.98
2016-03-11T07:17:54.528Z,997.94
2016-03-11T07:18:54.530Z,997.96
2016-03-11T07:19:54.518Z,997.98
2016-03-11T07:20:54.520Z,997.94
2016-03-11T07:21:54.507Z,997.98
2016-03-11T07:22:54.510Z,997.97
2016-03-11T07:23:54.498Z,997.99
2016-03-11T07:24:54.484Z,998.02
2016-03-11T07:25:54.487Z,998.02
2016-03-11T07:26:54.473Z,998.02
2016-03-11T07:27:54.476Z,997.99
2016-03-11T07:28:54.464Z,998.04
2016-03-11T07:29:54.451Z,998.02
2016-03-11T07:30:54.453Z,998.01
2016-03-11T07:31:54.440Z,997.96
2016-03-11T07:32:54.443Z,997.96
2016-03-11T07:33:54.430Z,997.91
2016-03-11T07:34:54.433Z,997.9
2016-03-11T07:35:54.435Z,997.92
2016-03-11T07:36:54.438Z,997.91
2016-03-11T07:37:54.410Z,997.93
2016-03-11T07:38:54.413Z,997.9
2016-03-11T07:39:54.399Z,997.87
2016-03-11T07:40:54.402Z,997.88
2016-03-11T07:41:54.404Z,997.9
2016-03-11T07:42:54.392Z,997.88
2016-03-11T07:43:54.379Z,997.9
2016-03-11T07:44:54.382Z,997.94
2016-03-11T07:45:54.369Z,997.98
2016-03-11T07:46:54.355Z,997.94
2016-03-11T07:47:54.358Z,997.98
2016-03-11T07:48:54.345Z,997.92
2016-03-11T07:49:54.349Z,997.96
2016-03-11T07:50:54.335Z,997.98
2016-03-11T07:51:54.338Z,997.97
2016-03-11T07:52:54.325Z,997.98
2016-03-11T07:53:54.328Z,997.94
2016-03-11T07:54:54.314Z,997.93
2016-03-11T07:55:54.317Z,997.94
2016-03-11T07:56:54.304Z,997.89
2016-03-11T07:57:54.307Z,997.91
2016-03-11T07:58:54.294Z,997.9
2016-03-11T07:59:54.297Z,997.94
2016-03-11T08:00:54.284Z,997.93
2016-03-11T08:01:54.286Z,997.94
2016-03-11T08:02:54.274Z,997.94
2016-03-11T08:03:54.276Z,997.98
2016-03-11T08:04:54.261Z,997.97
2016-03-11T08:05:54.264Z,997.99
2016-03-11T08:06:54.250Z,998.02
2016-03-11T08:07:54.253Z,997.98
2016-03-11T08:08:54.241Z,998.03
2016-03-11T08:09:54.244Z,998.02
2016-03-11T08:10:54.230Z,998.02
2016-03-11T08:11:54.233Z,998.01
2016-03-11T08:12:54.220Z,998.01
2016-03-11T08:13:54.223Z,998.02
2016-03-11T08:14:54.210Z,998
2016-03-11T08:15:54.213Z,998.01
2016-03-11T08:16:54.216Z,997.99
2016-03-11T08:17:54.202Z,998
2016-03-11T08:18:54.205Z,998.05
2016-03-11T08:19:54.208Z,998.01
2016-03-11T08:20:54.194Z,997.99
2016-03-11T08:21:54.182Z,998.05
2016-03-11T08:22:54.185Z,998.08
2016-03-11T08:23:54.171Z,998.07
2016-03-11T08:24:54.174Z,998.11
2016-03-11T08:25:54.176Z,998.09
2016-03-11T08:26:54.164Z,998.12
2016-03-11T08:27:54.167Z,998.1
2016-03-11T08:28:54.153Z,998.11
2016-03-11T08:29:54.156Z,998.15
2016-03-11T08:30:54.143Z,998.16
2016-03-11T08:31:54.146Z,998.14
2016-03-11T08:32:54.133Z,998.1
2016-03-11T08:33:54.136Z,998.14
2016-03-11T08:34:54.139Z,998.06
2016-03-11T08:35:54.125Z,998.03
2016-03-11T08:36:54.128Z,998.13
2016-03-11T08:37:54.114Z,998.09
2016-03-11T08:38:54.118Z,998.04
2016-03-11T08:39:54.120Z,998.03
2016-03-11T08:40:54.108Z,998.02
2016-03-11T08:41:54.111Z,997.99
2016-03-11T08:42:54.097Z,998.01
2016-03-11T08:43:54.100Z,998.01
2016-03-11T08:44:54.087Z,997.98
2016-03-11T08:45:54.090Z,997.99
2016-03-11T08:46:54.077Z,997.93
2016-03-11T08:47:54.079Z,997.99
2016-03-11T08:48:54.082Z,997.98
2016-03-11T08:49:54.069Z,998
2016-03-11T08:50:54.072Z,997.97
2016-03-11T08:51:54.060Z,997.96
2016-03-11T08:52:54.062Z,997.97
2016-03-11T08:53:54.049Z,997.96
2016-03-11T08:54:54.051Z,997.96
2016-03-11T08:55:54.038Z,997.98
2016-03-11T08:56:54.041Z,998
2016-03-11T08:57:54.043Z,998
2016-03-11T08:58:54.031Z,998
2016-03-11T08:59:54.034Z,998
2016-03-11T09:00:54.021Z,997.98
2016-03-11T09:01:54.023Z,998.01
2016-03-11T09:02:54.025Z,998.02
2016-03-11T09:03:54.014Z,998.03
2016-03-11T09:04:54.016Z,998.07
2016-03-11T09:05:54.018Z,998.08
2016-03-11T09:06:54.005Z,998.09
2016-03-11T09:07:54.008Z,998.08
2016-03-11T09:08:54.011Z,998.08
2016-03-11T09:09:53.997Z,998.03
2016-03-11T09:10:54.000Z,998.04
2016-03-11T09:11:53.988Z,998.04
2016-03-11T09:12:53.991Z,998.09
2016-03-11T09:13:53.977Z,998.07
2016-03-11T09:14:53.980Z,998.03
2016-03-11T09:15:53.967Z,998.02
2016-03-11T09:16:53.970Z,998
2016-03-11T09:17:53.957Z,998.02
2016-03-11T09:18:53.975Z,998.03
2016-03-11T09:19:54.040Z,998.02
2016-03-11T09:20:53.965Z,998.01
2016-03-11T09:21:53.952Z,997.97
2016-03-11T09:22:53.954Z,998.07
2016-03-11T09:23:53.942Z,998.04
2016-03-11T09:24:53.945Z,998.06
2016-03-11T09:25:53.932Z,998.05
2016-03-11T09:26:53.934Z,998.09
2016-03-11T09:27:53.937Z,998.09
2016-03-11T09:28:53.924Z,998.02
2016-03-11T09:29:53.927Z,998.07
2016-03-11T09:30:53.914Z,998.02
2016-03-11T09:31:53.917Z,998.04
2016-03-11T09:32:53.935Z,998.05
2016-03-11T09:33:53.906Z,998.03
2016-03-11T09:34:53.908Z,998.05
2016-03-11T09:35:53.912Z,998.09
2016-03-11T09:36:53.914Z,998.08
2016-03-11T09:37:53.901Z,998.02
2016-03-11T09:38:53.889Z,998.08
2016-03-11T09:39:53.892Z,998.1
2016-03-11T09:40:53.894Z,998.13
2016-03-11T09:41:53.881Z,998.1
2016-03-11T09:42:53.883Z,998.15
2016-03-11T09:43:53.871Z,998.1
2016-03-11T09:44:53.874Z,998.09
2016-03-11T09:45:53.860Z,998.11
2016-03-11T09:46:53.863Z,998.08
2016-03-11T09:47:53.866Z,998.06
2016-03-11T09:48:53.852Z,998.07
2016-03-11T09:49:53.855Z,998.06
2016-03-11T09:50:53.857Z,998.05
2016-03-11T09:51:53.846Z,998.07
2016-03-11T09:52:53.849Z,998.07
2016-03-11T09:53:53.835Z,998.05
2016-03-11T09:54:53.838Z,998.11
2016-03-11T09:55:53.841Z,998.1
2016-03-11T09:56:53.827Z,998.13
2016-03-11T09:57:53.829Z,998.1
2016-03-11T09:58:53.818Z,998.12
2016-03-11T09:59:53.820Z,998.11
2016-03-11T10:00:53.823Z,998.11
2016-03-11T10:01:53.809Z,998.11
2016-03-11T10:02:53.812Z,998.09
2016-03-11T10:03:53.815Z,998.16
2016-03-11T10:04:53.817Z,998.15
2016-03-11T10:05:53.805Z,998.14
2016-03-11T10:06:53.813Z,998.21
2016-03-11T10:07:53.801Z,998.21
2016-03-11T10:08:53.787Z,998.21
2016-03-11T10:09:53.790Z,998.28
2016-03-11T10:10:53.793Z,998.27
2016-03-11T10:11:53.780Z,998.31
2016-03-11T10:12:53.783Z,998.3
2016-03-11T10:13:53.785Z,998.3
2016-03-11T10:14:53.773Z,998.32
2016-03-11T10:15:53.775Z,998.35
2016-03-11T10:16:53.777Z,998.32
2016-03-11T10:17:53.765Z,998.28
2016-03-11T10:18:53.768Z,998.3
2016-03-11T10:19:53.770Z,998.28
2016-03-11T10:20:53.757Z,998.28
2016-03-11T10:21:53.761Z,998.23
2016-03-11T10:22:53.763Z,998.27
2016-03-11T10:23:53.749Z,998.22
2016-03-11T10:24:53.752Z,998.21
2016-03-11T10:25:53.755Z,998.25
2016-03-11T10:26:53.758Z,998.31
2016-03-11T10:27:53.744Z,998.21
2016-03-11T10:28:53.747Z,998.22
2016-03-11T10:29:53.749Z,998.26
2016-03-11T10:30:53.752Z,998.31
2016-03-11T10:31:53.740Z,998.31
2016-03-11T10:32:53.742Z,998.38
2016-03-11T10:33:53.746Z,998.33
2016-03-11T10:34:53.732Z,998.37
2016-03-11T10:35:53.735Z,998.34
2016-03-11T10:36:53.737Z,998.33
2016-03-11T10:37:53.740Z,998.33
2016-03-11T10:38:53.728Z,998.35
2016-03-11T10:39:53.730Z,998.28
2016-03-11T10:40:53.734Z,998.28
2016-03-11T10:41:53.720Z,998.29
2016-03-11T10:42:53.738Z,998.31
2016-03-11T10:43:53.725Z,998.25
2016-03-11T10:44:53.728Z,998.3
2016-03-11T10:45:53.731Z,998.26
2016-03-11T10:46:53.717Z,998.28
2016-03-11T10:47:53.721Z,998.3
2016-03-11T10:48:53.708Z,998.28
2016-03-11T10:49:53.710Z,998.28
2016-03-11T10:50:53.713Z,998.27
2016-03-11T10:51:53.716Z,998.27
2016-03-11T10:52:53.703Z,998.28
2016-03-11T10:53:53.705Z,998.27
2016-03-11T10:54:53.708Z,998.3
2016-03-11T10:55:53.711Z,998.31
2016-03-11T10:56:53.713Z,998.29
2016-03-11T10:57:53.700Z,998.31
2016-03-11T10:58:53.702Z,998.33
2016-03-11T10:59:53.706Z,998.36
2016-03-11T11:00:53.693Z,998.33
2016-03-11T11:01:53.696Z,998.41
2016-03-11T11:02:53.698Z,998.43
2016-03-11T11:03:53.701Z,998.41
2016-03-11T11:04:53.688Z,998.41
2016-03-11T11:05:53.683Z,998.39
2016-03-11T11:06:53.671Z,998.42
2016-03-11T11:07:53.659Z,998.37
2016-03-11T11:08:53.632Z,998.41
2016-03-11T11:09:53.619Z,998.37
2016-03-11T11:10:53.612Z,998.38
2016-03-11T11:11:53.609Z,998.37
2016-03-11T11:12:53.590Z,998.38
2016-03-11T11:13:53.588Z,998.39
2016-03-11T11:14:53.585Z,998.39
2016-03-11T11:15:53.584Z,998.37
2016-03-11T11:16:53.585Z,998.4
2016-03-11T11:17:53.569Z,998.42
2016-03-11T11:18:53.570Z,998.44
2016-03-11T11:19:53.571Z,998.45
2016-03-11T11:20:53.557Z,998.45
2016-03-11T11:21:53.559Z,998.48
2016-03-11T11:22:53.576Z,998.47
2016-03-11T11:23:53.563Z,998.42
2016-03-11T11:24:53.565Z,998.46
2016-03-11T11:25:53.567Z,998.46
2016-03-11T11:26:53.554Z,998.47
2016-03-11T11:27:53.571Z,998.5
2016-03-11T11:28:53.541Z,998.47
2016-03-11T11:29:53.544Z,998.52
2016-03-11T11:30:53.546Z,998.44
2016-03-11T11:31:53.550Z,998.45
2016-03-11T11:32:53.537Z,998.51
2016-03-11T11:33:53.539Z,998.43
2016-03-11T11:34:53.543Z,998.46
2016-03-11T11:35:53.545Z,998.35
2016-03-11T11:36:53.547Z,998.38
2016-03-11T11:37:53.551Z,998.39
2016-03-11T11:38:53.537Z,998.34
2016-03-11T11:39:53.540Z,998.39
2016-03-11T11:40:53.542Z,998.38
2016-03-11T11:41:53.530Z,998.36
2016-03-11T11:42:53.533Z,998.37
2016-03-11T11:43:53.535Z,998.33
2016-03-11T11:44:53.538Z,998.35
2016-03-11T11:45:53.525Z,998.32
2016-03-11T11:46:53.527Z,998.34
2016-03-11T11:47:53.530Z,998.34
2016-03-11T11:48:53.533Z,998.35
2016-03-11T11:49:53.535Z,998.28
2016-03-11T11:50:53.522Z,998.29
2016-03-11T11:51:53.525Z,998.29
2016-03-11T11:52:53.528Z,998.32
2016-03-11T11:53:53.530Z,998.3
2016-03-11T11:54:53.518Z,998.3
2016-03-11T11:55:53.521Z,998.26
2016-03-11T11:56:53.524Z,998.34
2016-03-11T11:57:53.526Z,998.33
2016-03-11T11:58:53.529Z,998.29
2016-03-11T11:59:53.516Z,998.27
2016-03-11T12:00:53.518Z,998.28
2016-03-11T12:01:53.521Z,998.34
2016-03-11T12:02:53.524Z,998.35
2016-03-11T12:03:53.527Z,998.34
2016-03-11T12:04:53.529Z,998.29
2016-03-11T12:05:53.532Z,998.28
2016-03-11T12:06:53.518Z,998.3
2016-03-11T12:07:53.521Z,998.23
2016-03-11T12:08:53.524Z,998.26
2016-03-11T12:09:53.526Z,998.27
2016-03-11T12:10:53.514Z,998.26
2016-03-11T12:11:53.517Z,998.25
2016-03-11T12:12:53.519Z,998.25
2016-03-11T12:13:53.523Z,998.25
2016-03-11T12:14:53.509Z,998.29
2016-03-11T12:15:53.512Z,998.21
2016-03-11T12:16:53.514Z,998.18
2016-03-11T12:17:53.517Z,998.19
2016-03-11T12:18:53.520Z,998.14
2016-03-11T12:19:53.522Z,998.16
2016-03-11T12:20:53.510Z,998.14
2016-03-11T12:21:53.513Z,998.17
2016-03-11T12:22:53.516Z,998.11
2016-03-11T12:23:53.518Z,998.14
2016-03-11T12:24:53.521Z,998.13
2016-03-11T12:25:53.524Z,998.09
2016-03-11T12:26:53.526Z,998.14
2016-03-11T12:27:53.513Z,998.14
2016-03-11T12:28:53.515Z,998.12
2016-03-11T12:29:53.518Z,998.11
2016-03-11T12:30:53.521Z,998.08
2016-03-11T12:31:53.524Z,998.05
2016-03-11T12:32:53.526Z,998.02